Main page
METAR-TAF:

METAR-TAF

Airports :

Oslo Airport. Gardermoen

Oslo, Norway

latitude: 60-12N, longitude: 011-05E, elevation: 208 m

Current weather observation

The report was made 38 minutes ago, at 00:50 UTC
Wind 4 kt from the West/Southwest, varying between South/Southwest and West/Northwest
Temperature 5°C
Humidity 87%
Pressure 1037 hPa
Visibility 10 km or more
Overcast at a height of 1200 ft

METAR: ENGM 170050Z 24004KT 210V290 9999 OVC012 05/03 Q1037

Time: 02:28 (01:28 UTC)

Forecast

Forecast valid from 17 at 00 UTC to 17 at 24 UTC
Wind 5 kt from variable directions
Visibility 10 km or more
Broken clouds at a height of 1600 ft
Temporary
from 17 at 00 UTC to 17 at 18 UTC
Broken clouds at a height of 800 ft
Probability 30%
from 17 at 20 UTC to 17 at 24 UTC
Visibility: 0500 m
at a height of 100 ft
fog

TAF: ENGM 1700/1724 VRB05KT 9999 BKN016 TEMPO 1700/1718 BKN008 PROB30 1720/1724 0500 FG VV001

Weather observations and forecasts of more than 4000 airports (METAR and TAF reports).

The available stations are represented by yellow and red dots on the map.

Hover mouse over dot to see the name of the station.

Then click to see weather observations and forecasts.

To change the map : click on the green buttons with a black cross to zoom in, on the green button with a dash to zoom out, or on the green arrows for adjacent maps.


METAR-TAF: